Time;durP1;ratioP1;P1;durP2;ratioP2;P2;SDS_P1;SDS_P2;PMS_P1;PMS_P2;Temp;Humidity;BMP_temperature;BMP_pressure;BME280_temperature;BME280_humidity;BME280_pressure;Samples;Min_cycle;Max_cycle;Signal;HPM_P1;HPM_P2
2021/05/06 00:33:20;;;;;;;3.63;0.82;;;;;;;14.79;40.33;93410.41;5124875;28;20035;-72
2021/05/06 00:35:47;;;;;;;11.57;1.40;;;;;;;14.79;40.86;93426.53;5129475;28;20042;-71
2021/05/06 00:38:17;;;;;;;2.03;0.90;;;;;;;14.80;40.92;93428.09;5129922;28;20416;-70
2021/05/06 01:06:42;;;;;;;3.50;1.10;;;;;;;14.69;42.58;93454.66;5126489;27;20035;-68
2021/05/06 01:09:10;;;;;;;5.57;1.17;;;;;;;14.62;43.67;93457.94;5127430;28;20031;-68
2021/05/06 01:11:43;;;;;;;4.00;1.25;;;;;;;14.62;44.00;93459.88;5122013;27;20022;-68
2021/05/06 01:14:10;;;;;;;6.05;1.20;;;;;;;14.55;44.57;93460.47;5138610;27;20030;-68
2021/05/06 01:16:36;;;;;;;8.55;1.27;;;;;;;14.51;45.27;93464.16;5125617;28;20030;-68
2021/05/06 01:19:01;;;;;;;4.47;1.25;;;;;;;14.28;46.12;93464.75;5128950;27;20023;-69
2021/05/06 01:21:27;;;;;;;5.32;1.63;;;;;;;14.13;46.30;93468.22;5127014;27;20083;-69
2021/05/06 01:23:54;;;;;;;7.18;1.83;;;;;;;14.02;46.79;93473.28;5113389;28;20445;-69
2021/05/06 01:26:31;;;;;;;5.70;1.40;;;;;;;13.98;46.98;93465.19;5121988;27;20449;-69
2021/05/06 01:28:59;;;;;;;5.88;1.27;;;;;;;13.92;46.91;93463.09;5129117;27;20041;-68
2021/05/06 01:31:28;;;;;;;5.88;1.10;;;;;;;13.85;47.64;93469.81;5131205;27;20478;-69
2021/05/06 01:36:31;;;;;;;6.35;1.38;;;;;;;13.82;47.50;93475.88;5117916;27;20398;-69
2021/05/06 01:46:53;;;;;;;4.78;1.90;;;;;;;13.50;47.94;93488.38;5129487;27;20024;-69
2021/05/06 01:49:34;;;;;;;2.92;1.33;;;;;;;13.43;48.16;93497.00;5131480;27;20463;-69
2021/05/06 01:57:56;;;;;;;5.10;1.40;;;;;;;13.27;50.00;93496.13;5133383;27;20466;-69
2021/05/06 02:00:27;;;;;;;5.13;1.70;;;;;;;13.23;49.69;93496.00;5131012;27;20076;-69
2021/05/06 02:02:52;;;;;;;4.68;1.08;;;;;;;13.20;49.50;93495.91;5129213;27;20498;-69
2021/05/06 02:05:18;;;;;;;7.05;1.73;;;;;;;13.14;50.20;93497.25;5124570;27;20042;-70
2021/05/06 02:07:45;;;;;;;4.55;1.30;;;;;;;13.14;49.13;93499.94;5114105;27;20028;-69
2021/05/06 02:10:15;;;;;;;5.10;1.10;;;;;;;13.09;49.59;93511.66;5129901;27;20487;-70
2021/05/06 02:12:41;;;;;;;3.90;1.10;;;;;;;13.09;50.15;93508.16;5115524;27;20038;-69
2021/05/06 02:15:30;;;;;;;4.25;1.08;;;;;;;13.05;50.48;93510.75;5131490;27;20023;-69
2021/05/06 02:17:57;;;;;;;4.00;1.33;;;;;;;13.04;50.53;93511.88;5119611;27;20501;-68
2021/05/06 02:20:23;;;;;;;9.70;1.55;;;;;;;13.03;50.35;93510.31;5131061;27;20026;-69
2021/05/06 02:22:50;;;;;;;4.95;1.83;;;;;;;13.01;50.45;93505.28;5129081;27;20024;-69
2021/05/06 02:25:17;;;;;;;3.55;1.30;;;;;;;13.03;50.59;93521.78;5129646;27;20019;-68
2021/05/06 02:27:42;;;;;;;7.18;1.70;;;;;;;12.95;51.16;93517.34;5130702;27;20031;-69
2021/05/06 02:30:09;;;;;;;5.38;1.45;;;;;;;12.86;51.96;93530.03;5126326;27;20030;-68
2021/05/06 02:32:34;;;;;;;5.00;0.90;;;;;;;12.85;51.03;93525.81;5117615;27;20056;-68
2021/05/06 02:35:00;;;;;;;5.38;1.70;;;;;;;12.83;51.29;93520.03;5129866;27;20027;-69
2021/05/06 02:37:26;;;;;;;13.23;1.80;;;;;;;12.82;51.83;93529.94;5130556;27;20031;-69
2021/05/06 02:39:52;;;;;;;9.40;1.75;;;;;;;12.79;52.52;93524.47;5131219;27;20026;-69
2021/05/06 02:42:17;;;;;;;4.45;1.35;;;;;;;12.73;53.14;93525.81;5123890;27;20522;-69
2021/05/06 02:44:43;;;;;;;1.90;1.00;;;;;;;12.65;53.63;93530.16;5119611;27;20081;-69
2021/05/06 02:47:09;;;;;;;5.30;1.77;;;;;;;12.60;54.02;93517.03;5120995;27;20070;-69
2021/05/06 02:49:35;;;;;;;4.10;1.15;;;;;;;12.54;54.19;93521.81;5127246;27;20050;-69
2021/05/06 02:52:07;;;;;;;2.75;1.30;;;;;;;12.51;54.14;93527.81;5111649;28;20102;-69
2021/05/06 02:54:37;;;;;;;6.28;1.73;;;;;;;12.47;54.02;93526.91;5122951;27;20028;-69
2021/05/06 02:57:10;;;;;;;4.80;1.25;;;;;;;12.44;53.88;93522.25;5127326;27;20023;-69
2021/05/06 03:05:05;;;;;;;9.57;2.03;;;;;;;12.36;54.29;93526.56;5132080;27;20402;-69
2021/05/06 03:07:32;;;;;;;6.90;1.88;;;;;;;12.36;54.51;93531.91;5127868;27;20027;-68
2021/05/06 03:10:13;;;;;;;7.13;1.77;;;;;;;12.34;54.55;93533.34;5127928;27;20027;-68
2021/05/06 03:23:24;;;;;;;27.88;2.03;;;;;;;12.07;56.02;93543.53;5113608;27;20046;-69
2021/05/06 03:25:50;;;;;;;4.55;1.83;;;;;;;12.05;56.01;93551.09;5128366;27;20015;-68
2021/05/06 03:28:24;;;;;;;6.35;1.50;;;;;;;12.04;55.85;93552.19;5121225;27;20027;-69
2021/05/06 03:41:52;;;;;;;5.35;1.48;;;;;;;12.03;56.02;93577.38;5126939;27;20043;-68
2021/05/06 03:44:33;;;;;;;4.05;1.58;;;;;;;12.07;55.29;93578.28;5129211;27;20118;-69
2021/05/06 03:47:31;;;;;;;7.30;2.08;;;;;;;12.14;54.45;93596.44;5128061;27;20490;-68
2021/05/06 04:27:34;;;;;;;8.80;1.50;;;;;;;13.12;51.51;93630.59;5102092;27;19911;-70
2021/05/06 04:37:45;;;;;;;7.32;1.50;;;;;;;13.41;50.67;93643.00;5130620;27;20497;-69
2021/05/06 04:56:03;;;;;;;11.48;2.17;;;;;;;13.68;51.52;93671.00;5127422;27;20033;-69
2021/05/06 05:06:25;;;;;;;19.98;4.38;;;;;;;14.17;51.36;93681.59;5121749;27;20024;-69
2021/05/06 05:09:03;;;;;;;17.73;3.30;;;;;;;14.25;51.05;93683.38;5129924;27;20020;-68
2021/05/06 05:11:47;;;;;;;12.27;4.22;;;;;;;14.36;50.18;93683.66;5129402;27;20541;-69
2021/05/06 05:27:23;;;;;;;8.18;2.38;;;;;;;14.99;49.60;93693.78;5113609;27;20039;-73
2021/05/06 05:29:52;;;;;;;7.00;1.85;;;;;;;15.03;48.14;93693.88;5113122;28;20467;-73
2021/05/06 05:32:18;;;;;;;7.93;2.50;;;;;;;15.10;47.99;93695.97;5113243;28;20521;-73
2021/05/06 05:34:48;;;;;;;14.25;3.35;;;;;;;15.16;48.50;93689.22;5113197;28;20027;-73
2021/05/06 05:37:19;;;;;;;7.60;2.92;;;;;;;15.19;48.66;93694.69;5133775;27;20027;-73
2021/05/06 05:39:59;;;;;;;12.27;2.58;;;;;;;15.25;48.91;93700.59;5131584;27;20080;-73
2021/05/06 05:42:48;;;;;;;13.35;1.77;;;;;;;15.35;48.62;93699.28;5130831;27;20403;-70
2021/05/06 05:55:43;;;;;;;5.45;1.15;;;;;;;15.38;43.81;93714.69;5133094;27;20042;-70
2021/05/06 05:58:09;;;;;;;10.52;1.42;;;;;;;15.32;43.44;93721.44;5132069;27;20019;-69
2021/05/06 06:00:34;;;;;;;5.00;1.58;;;;;;;15.30;45.09;93724.47;5131963;27;20037;-69
2021/05/06 06:03:00;;;;;;;4.25;1.63;;;;;;;15.30;45.28;93729.06;5133380;27;20041;-69
2021/05/06 06:05:25;;;;;;;7.43;2.33;;;;;;;15.30;45.74;93729.84;5133383;27;20038;-69
2021/05/06 06:07:51;;;;;;;7.95;1.48;;;;;;;15.29;44.61;93732.91;5129657;27;20059;-69
2021/05/06 06:10:16;;;;;;;9.70;1.60;;;;;;;15.14;45.05;93732.53;5132632;27;20038;-69
2021/05/06 06:12:42;;;;;;;3.92;1.10;;;;;;;15.12;44.50;93729.41;5129577;27;20031;-69
2021/05/06 06:15:14;;;;;;;5.05;1.38;;;;;;;15.17;44.32;93726.47;5130861;27;20023;-69
2021/05/06 06:17:42;;;;;;;7.53;2.00;;;;;;;15.25;45.44;93735.47;5131557;27;20084;-69
2021/05/06 06:20:08;;;;;;;10.80;1.58;;;;;;;15.18;44.15;93737.97;5131238;27;20027;-69
2021/05/06 06:22:34;;;;;;;10.30;1.88;;;;;;;15.17;45.42;93753.31;5131558;27;20061;-70
2021/05/06 06:25:02;;;;;;;8.65;1.95;;;;;;;15.05;45.65;93761.44;5131697;27;20106;-70
2021/05/06 06:27:29;;;;;;;4.07;1.58;;;;;;;14.98;46.36;93767.38;5131695;27;20023;-70
2021/05/06 06:29:55;;;;;;;6.55;1.30;;;;;;;15.07;47.14;93766.47;5131245;27;20474;-70
2021/05/06 06:32:20;;;;;;;8.77;2.28;;;;;;;15.10;47.38;93760.38;5132699;27;20110;-70
2021/05/06 06:34:47;;;;;;;13.93;2.03;;;;;;;15.20;48.22;93760.69;5131148;27;20027;-70
2021/05/06 06:37:13;;;;;;;6.10;1.50;;;;;;;15.35;47.14;93775.25;5132282;27;20035;-70
2021/05/06 06:39:40;;;;;;;8.27;2.00;;;;;;;15.37;46.98;93767.63;5132498;27;20038;-70
2021/05/06 06:42:10;;;;;;;4.50;1.42;;;;;;;15.39;46.45;93765.38;5130779;27;20030;-73
2021/05/06 06:44:36;;;;;;;14.95;3.97;;;;;;;15.40;46.51;93766.94;5130798;27;20403;-74
2021/05/06 06:47:05;;;;;;;6.75;1.92;;;;;;;15.41;44.98;93776.56;5129432;27;20471;-74
2021/05/06 06:49:33;;;;;;;9.10;2.22;;;;;;;15.37;44.80;93778.38;5131084;27;20051;-73
2021/05/06 06:51:59;;;;;;;6.78;1.63;;;;;;;15.35;45.29;93772.56;5132470;27;20019;-73
2021/05/06 06:54:26;;;;;;;7.43;1.50;;;;;;;15.34;45.83;93779.03;5132336;27;20080;-73
2021/05/06 06:56:52;;;;;;;8.50;1.60;;;;;;;15.30;45.90;93783.53;5132003;27;20106;-73
2021/05/06 06:59:17;;;;;;;6.70;1.42;;;;;;;15.39;46.71;93786.88;5132125;27;20501;-73
2021/05/06 07:01:43;;;;;;;8.50;1.38;;;;;;;15.40;46.11;93774.97;5131859;27;20031;-73
2021/05/06 07:04:10;;;;;;;9.65;1.90;;;;;;;15.54;46.65;93776.47;5132048;27;20034;-73
2021/05/06 07:06:36;;;;;;;11.60;1.92;;;;;;;15.49;45.72;93776.72;5130769;27;20027;-73
2021/05/06 07:09:01;;;;;;;21.83;2.78;;;;;;;15.44;46.63;93781.22;5131990;27;20071;-73
2021/05/06 07:11:26;;;;;;;10.65;1.52;;;;;;;15.54;46.97;93781.84;5131825;27;20474;-73
2021/05/06 07:13:52;;;;;;;11.07;1.65;;;;;;;15.51;46.27;93777.97;5131687;27;20019;-73
2021/05/06 07:16:17;;;;;;;5.05;1.60;;;;;;;15.55;46.83;93784.19;5131433;27;20079;-73
2021/05/06 07:18:43;;;;;;;8.38;1.23;;;;;;;15.59;46.43;93784.25;5131962;27;20027;-73
2021/05/06 07:21:08;;;;;;;4.85;1.25;;;;;;;15.58;46.99;93782.72;5131328;27;20505;-73
2021/05/06 07:23:35;;;;;;;6.22;2.05;;;;;;;15.69;46.41;93786.44;5131752;27;20031;-73
2021/05/06 07:26:02;;;;;;;3.67;1.50;;;;;;;15.81;46.50;93775.66;5131487;27;20025;-73
2021/05/06 07:28:32;;;;;;;7.35;1.95;;;;;;;15.86;46.25;93782.66;5130079;27;20114;-73
2021/05/06 07:31:01;;;;;;;6.50;1.38;;;;;;;15.83;44.36;93789.53;5131377;27;20034;-73
2021/05/06 07:33:27;;;;;;;9.20;2.38;;;;;;;15.87;46.07;93778.06;5131381;27;20027;-73
2021/05/06 07:35:53;;;;;;;3.70;1.60;;;;;;;15.89;44.63;93794.63;5131362;27;20023;-73
2021/05/06 07:38:19;;;;;;;5.45;1.25;;;;;;;15.86;44.13;93787.28;5131458;27;20083;-73
2021/05/06 07:40:45;;;;;;;7.90;1.70;;;;;;;15.98;45.22;93795.22;5130047;27;20538;-73
2021/05/06 07:43:10;;;;;;;8.27;2.03;;;;;;;16.00;46.27;93792.97;5131284;27;20038;-73
2021/05/06 07:45:35;;;;;;;5.60;1.85;;;;;;;16.15;45.41;93783.31;5129906;27;20027;-73
2021/05/06 07:48:01;;;;;;;4.55;1.38;;;;;;;16.05;45.01;93787.31;5131033;27;20029;-73
2021/05/06 07:50:28;;;;;;;3.85;1.70;;;;;;;16.05;45.76;93779.25;5131232;27;20035;-73
2021/05/06 07:53:03;;;;;;;4.70;1.65;;;;;;;16.17;45.94;93781.84;5131187;27;20034;-72
2021/05/06 07:55:29;;;;;;;3.33;1.60;;;;;;;16.25;46.64;93778.19;5127883;27;20031;-72
2021/05/06 07:57:54;;;;;;;6.45;1.85;;;;;;;16.38;45.68;93789.59;5110429;27;20543;-70
2021/05/06 08:00:21;;;;;;;9.75;1.70;;;;;;;16.37;46.43;93782.66;5110236;28;20023;-70
2021/05/06 08:02:49;;;;;;;11.52;2.20;;;;;;;16.48;46.80;93774.03;5126029;27;20031;-70
2021/05/06 08:05:15;;;;;;;7.82;2.97;;;;;;;16.52;46.92;93775.66;5128459;27;20457;-70
2021/05/06 08:07:41;;;;;;;31.13;3.97;;;;;;;16.61;46.50;93778.94;5131182;27;20451;-70
2021/05/06 08:10:07;;;;;;;13.93;1.92;;;;;;;16.74;46.46;93781.50;5131339;27;20019;-70
2021/05/06 08:12:33;;;;;;;15.63;2.22;;;;;;;16.85;46.58;93777.13;5129405;27;20425;-70
2021/05/06 08:14:58;;;;;;;8.52;2.75;;;;;;;16.96;45.33;93778.13;5129672;27;20034;-70
2021/05/06 08:17:24;;;;;;;7.47;2.70;;;;;;;17.09;44.60;93791.44;5131062;27;20011;-69
2021/05/06 08:19:50;;;;;;;5.90;1.67;;;;;;;17.03;45.25;93780.94;5127121;27;20058;-69
2021/05/06 08:22:16;;;;;;;8.23;2.15;;;;;;;17.07;44.75;93777.56;5110758;28;20027;-69
2021/05/06 08:24:42;;;;;;;5.28;1.48;;;;;;;17.20;44.15;93776.28;5127593;28;20387;-70
2021/05/06 08:27:08;;;;;;;8.13;2.00;;;;;;;17.36;44.59;93784.25;5130882;27;20421;-71
2021/05/06 08:29:33;;;;;;;21.45;2.35;;;;;;;17.39;43.92;93784.31;5130970;27;20039;-70
2021/05/06 08:31:59;;;;;;;5.45;1.58;;;;;;;17.31;42.87;93787.25;5132608;27;20037;-70
2021/05/06 08:34:25;;;;;;;4.15;1.92;;;;;;;17.32;42.31;93778.81;5135061;27;20071;-70
2021/05/06 08:36:50;;;;;;;8.98;1.80;;;;;;;17.40;43.05;93790.47;5134801;27;20442;-70
2021/05/06 08:39:16;;;;;;;19.02;2.70;;;;;;;17.47;43.05;93781.78;5133173;27;20026;-70
2021/05/06 08:41:42;;;;;;;18.15;2.10;;;;;;;17.61;43.80;93777.41;5132996;27;20030;-70
2021/05/06 08:44:11;;;;;;;8.15;1.70;;;;;;;17.74;41.12;93783.38;5134489;27;20151;-70
2021/05/06 08:46:43;;;;;;;5.57;1.48;;;;;;;17.74;42.41;93782.59;5135037;27;20455;-70
2021/05/06 08:49:08;;;;;;;;;;;;;;;17.82;41.69;93787.75;5133895;27;20035;-73
2021/05/06 08:51:35;;;;;;;7.90;1.73;;;;;;;17.95;42.02;93787.59;5133376;27;19918;-73
2021/05/06 08:54:00;;;;;;;7.35;1.30;;;;;;;18.02;40.65;93793.09;5129986;27;20114;-73
2021/05/06 08:56:26;;;;;;;5.40;1.45;;;;;;;17.96;39.62;93802.63;5113790;28;20165;-73
2021/05/06 08:58:52;;;;;;;4.45;1.33;;;;;;;17.95;39.23;93795.69;5113959;28;20490;-73
2021/05/06 09:01:18;;;;;;;4.85;1.80;;;;;;;18.03;39.13;93800.84;5113767;28;20015;-73
2021/05/06 09:03:43;;;;;;;3.38;1.10;;;;;;;18.30;38.08;93792.75;5113865;28;20367;-74
2021/05/06 09:06:18;;;;;;;3.92;1.98;;;;;;;18.42;36.06;93797.94;5129697;27;20027;-73
2021/05/06 09:08:53;;;;;;;3.92;1.58;;;;;;;18.41;35.64;93790.97;5133980;27;20026;-73
2021/05/06 09:11:43;;;;;;;4.65;1.27;;;;;;;18.38;37.99;93789.03;5113611;28;20026;-73
2021/05/06 09:14:09;;;;;;;3.65;1.35;;;;;;;18.35;40.20;93805.16;5114033;28;20110;-73
2021/05/06 09:16:43;;;;;;;10.05;1.65;;;;;;;18.06;38.25;93807.41;5132417;27;20062;-73
2021/05/06 09:19:13;;;;;;;5.85;1.65;;;;;;;17.77;38.72;93808.84;5134022;27;20031;-73
2021/05/06 09:21:45;;;;;;;3.08;1.40;;;;;;;17.70;38.54;93804.09;5134272;27;20030;-73
2021/05/06 09:24:27;;;;;;;3.55;1.10;;;;;;;17.78;39.65;93802.31;5132970;27;20212;-73
2021/05/06 09:27:01;;;;;;;3.13;1.37;;;;;;;17.88;38.23;93790.94;5132913;27;20034;-73
2021/05/06 09:29:45;;;;;;;10.35;1.65;;;;;;;17.96;38.38;93789.16;5133945;27;20058;-73
2021/05/06 09:32:22;;;;;;;5.60;1.67;;;;;;;18.08;37.82;93801.66;5134319;27;20092;-73
2021/05/06 09:34:51;;;;;;;6.18;1.45;;;;;;;18.17;38.13;93797.56;5133919;27;20030;-72
2021/05/06 09:37:30;;;;;;;2.90;1.50;;;;;;;18.35;37.20;93813.25;5132630;27;20126;-70
2021/05/06 09:40:22;;;;;;;3.42;1.50;;;;;;;18.37;35.88;93806.34;5132579;27;20023;-70
2021/05/06 09:42:50;;;;;;;7.88;1.48;;;;;;;18.32;36.33;93795.88;5113845;27;20046;-70
2021/05/06 09:45:24;;;;;;;5.70;1.42;;;;;;;18.35;35.91;93810.56;5128887;27;20072;-71
2021/05/06 09:48:12;;;;;;;5.55;1.17;;;;;;;18.33;35.21;93796.66;5129441;27;20045;-71
2021/05/06 09:50:39;;;;;;;3.88;1.35;;;;;;;18.51;35.00;93794.97;5129649;27;20027;-71
2021/05/06 09:53:13;;;;;;;4.85;1.33;;;;;;;18.63;33.58;93793.97;5132662;27;20184;-71
2021/05/06 09:55:41;;;;;;;3.97;1.40;;;;;;;18.67;34.09;93794.03;5132433;27;20023;-71
2021/05/06 09:58:28;;;;;;;10.38;1.27;;;;;;;18.79;33.76;93804.63;5123006;27;20031;-71
2021/05/06 10:00:55;;;;;;;4.43;1.65;;;;;;;18.88;33.84;93797.03;5122075;27;20026;-71
2021/05/06 10:03:23;;;;;;;6.55;1.05;;;;;;;18.98;33.37;93801.00;5132388;27;20039;-71
2021/05/06 10:05:50;;;;;;;3.05;1.55;;;;;;;19.05;33.46;93795.72;5133646;27;20075;-71
2021/05/06 10:08:16;;;;;;;7.03;1.40;;;;;;;18.96;33.69;93822.19;5125507;27;20105;-71
2021/05/06 10:10:43;;;;;;;6.55;1.48;;;;;;;18.84;34.25;93801.59;5129769;27;20059;-72
2021/05/06 10:13:10;;;;;;;3.10;1.35;;;;;;;18.65;33.58;93807.91;5128905;27;20027;-71
2021/05/06 10:15:40;;;;;;;2.63;1.08;;;;;;;18.54;34.77;93807.75;5130311;27;20038;-72
2021/05/06 10:18:06;;;;;;;7.15;1.55;;;;;;;18.57;33.91;93793.50;5132564;27;20027;-72
2021/05/06 10:20:32;;;;;;;3.67;1.08;;;;;;;18.78;34.92;93794.94;5132304;27;20401;-71
2021/05/06 10:23:00;;;;;;;6.00;1.50;;;;;;;18.95;33.45;93805.22;5132322;27;20031;-71
2021/05/06 10:25:25;;;;;;;3.63;1.70;;;;;;;18.94;34.67;93797.50;5132417;27;20410;-72
2021/05/06 10:27:52;;;;;;;4.28;0.98;;;;;;;19.03;33.46;93796.06;5117345;27;20031;-72
2021/05/06 10:30:19;;;;;;;5.05;1.38;;;;;;;19.07;33.89;93800.72;5121612;27;20106;-71
2021/05/06 10:32:45;;;;;;;7.82;1.50;;;;;;;19.17;34.22;93805.47;5121250;27;20027;-72
2021/05/06 10:35:18;;;;;;;2.83;1.38;;;;;;;19.05;33.95;93803.81;5125597;27;20443;-72
2021/05/06 10:37:50;;;;;;;2.63;1.08;;;;;;;18.96;33.98;93814.09;5117004;27;20027;-72
2021/05/06 10:40:22;;;;;;;2.40;1.02;;;;;;;18.92;34.50;93816.75;5123788;27;20471;-72
2021/05/06 10:42:52;;;;;;;5.60;1.17;;;;;;;18.99;33.56;93814.16;5131617;27;20035;-71
2021/05/06 10:45:17;;;;;;;5.60;1.30;;;;;;;19.12;33.57;93808.50;5122117;27;20020;-71
2021/05/06 10:47:43;;;;;;;4.32;1.20;;;;;;;19.26;33.20;93808.66;5125486;27;20125;-70
2021/05/06 10:50:21;;;;;;;1.83;1.10;;;;;;;19.43;33.08;93805.38;5119671;27;20042;-71
2021/05/06 10:52:53;;;;;;;13.90;1.52;;;;;;;19.62;34.60;93806.31;5131482;27;20039;-71
2021/05/06 10:55:38;;;;;;;7.45;1.52;;;;;;;19.79;33.06;93805.75;5117297;27;20102;-71
2021/05/06 10:58:32;;;;;;;2.35;1.10;;;;;;;19.95;33.73;93815.56;5127822;27;20023;-71
2021/05/06 11:01:04;;;;;;;5.25;2.22;;;;;;;19.98;32.75;93812.09;5128339;27;20015;-71
2021/05/06 11:03:33;;;;;;;3.05;1.20;;;;;;;20.04;31.29;93814.06;5127123;27;20486;-71
2021/05/06 11:05:59;;;;;;;6.55;1.05;;;;;;;20.04;31.98;93816.00;5127999;27;20124;-70
2021/05/06 11:08:35;;;;;;;4.10;1.30;;;;;;;20.18;32.92;93810.72;5123050;27;20091;-71
2021/05/06 11:11:00;;;;;;;7.72;1.25;;;;;;;20.24;32.42;93822.75;5120480;27;20038;-71
2021/05/06 11:13:28;;;;;;;8.05;1.10;;;;;;;20.28;31.74;93813.88;5127578;27;20414;-71
2021/05/06 11:16:16;;;;;;;4.32;1.40;;;;;;;20.23;32.06;93813.09;5114949;27;20028;-71
2021/05/06 11:18:44;;;;;;;4.75;1.10;;;;;;;20.38;31.98;93816.66;5123821;27;20496;-71
2021/05/06 11:21:30;;;;;;;5.43;1.25;;;;;;;20.64;31.40;93810.28;5130807;27;20096;-71
2021/05/06 11:24:25;;;;;;;2.97;1.10;;;;;;;21.03;31.84;93809.72;5127668;27;20031;-71
2021/05/06 11:27:00;;;;;;;3.47;1.23;;;;;;;21.31;30.90;93805.56;5129118;27;20027;-71
2021/05/06 11:29:29;;;;;;;4.25;1.15;;;;;;;21.48;30.34;93811.47;5117941;27;20110;-71
2021/05/06 11:31:55;;;;;;;5.28;1.23;;;;;;;21.28;31.01;93805.56;5123522;27;20027;-71
2021/05/06 11:34:31;;;;;;;5.20;1.70;;;;;;;21.00;30.46;93802.38;5129477;27;20027;-71
2021/05/06 11:37:06;;;;;;;14.25;1.50;;;;;;;20.63;31.87;93803.31;5117466;27;20528;-71
2021/05/06 11:39:32;;;;;;;4.70;1.08;;;;;;;20.39;31.79;93828.25;5127710;27;20501;-71
2021/05/06 11:41:57;;;;;;;5.50;1.02;;;;;;;20.26;31.96;93808.06;5117661;27;20035;-71
2021/05/06 11:44:22;;;;;;;3.92;1.15;;;;;;;20.15;32.52;93803.38;5130915;27;20110;-71
2021/05/06 11:46:48;;;;;;;2.17;1.10;;;;;;;20.13;32.05;93804.88;5130592;27;20019;-71
2021/05/06 11:49:17;;;;;;;6.63;1.20;;;;;;;20.18;32.45;93805.31;5114910;27;20043;-71
2021/05/06 11:51:44;;;;;;;7.55;1.27;;;;;;;20.22;31.47;93803.41;5123729;27;20023;-71
2021/05/06 11:54:20;;;;;;;10.63;1.60;;;;;;;20.33;31.57;93806.19;5130442;27;20034;-71
2021/05/06 11:56:55;;;;;;;5.47;1.25;;;;;;;20.50;31.64;93795.88;5130255;27;20031;-72
2021/05/06 11:59:23;;;;;;;3.40;1.10;;;;;;;20.68;31.42;93795.97;5130028;27;20015;-71
2021/05/06 12:01:49;;;;;;;7.05;1.30;;;;;;;20.69;31.22;93787.47;5116189;27;20107;-70
2021/05/06 12:04:32;;;;;;;2.20;1.15;;;;;;;20.63;31.19;93795.19;5119584;27;20020;-71
2021/05/06 12:06:59;;;;;;;6.10;1.13;;;;;;;20.44;30.86;93790.03;5121571;27;20023;-71
2021/05/06 12:09:30;;;;;;;3.72;1.50;;;;;;;20.37;30.89;93798.88;5119812;27;20036;-71
2021/05/06 12:11:56;;;;;;;4.03;1.17;;;;;;;20.48;31.56;93790.81;5116843;28;20569;-71
2021/05/06 12:14:33;;;;;;;3.92;1.00;;;;;;;20.64;32.21;93788.63;5129734;28;20027;-71
2021/05/06 12:16:59;;;;;;;2.70;1.10;;;;;;;20.75;31.18;93785.97;5119315;28;20421;-71
2021/05/06 12:19:25;;;;;;;1.77;1.05;;;;;;;20.60;30.22;93782.41;5127282;28;20023;-71
2021/05/06 12:21:55;;;;;;;4.72;0.88;;;;;;;20.76;30.92;93770.50;5128318;28;20034;-71
2021/05/06 12:24:32;;;;;;;2.65;1.17;;;;;;;20.97;30.92;93778.72;5130516;28;20029;-71
2021/05/06 12:27:18;;;;;;;5.88;0.90;;;;;;;21.30;30.09;93781.56;5130155;28;20119;-71
2021/05/06 12:29:48;;;;;;;3.05;1.33;;;;;;;21.66;28.89;93782.44;5129733;28;20051;-72
2021/05/06 12:32:21;;;;;;;8.70;1.05;;;;;;;21.75;28.39;93774.69;5130232;28;20031;-72
2021/05/06 12:34:48;;;;;;;2.60;1.30;;;;;;;21.86;29.21;93769.28;5127173;27;20022;-71
2021/05/06 12:37:14;;;;;;;2.53;1.02;;;;;;;21.71;29.26;93782.03;5127265;28;20110;-71
2021/05/06 12:39:40;;;;;;;3.55;1.20;;;;;;;21.30;30.16;93776.91;5119323;28;20503;-71
2021/05/06 12:42:06;;;;;;;3.78;1.42;;;;;;;21.21;29.10;93773.78;5124819;28;20110;-71
2021/05/06 12:44:40;;;;;;;5.78;1.55;;;;;;;21.02;29.78;93775.66;5126065;27;20024;-71
2021/05/06 12:47:21;;;;;;;2.78;1.02;;;;;;;21.02;29.32;93772.94;5116241;28;20023;-72
2021/05/06 12:50:06;;;;;;;7.53;1.00;;;;;;;21.15;28.92;93778.03;5127158;28;20054;-71
2021/05/06 12:52:42;;;;;;;5.65;1.27;;;;;;;21.13;30.26;93766.78;5128772;27;20110;-71
2021/05/06 12:55:25;;;;;;;5.00;1.23;;;;;;;21.08;30.01;93772.56;5129404;28;20019;-72
2021/05/06 12:58:13;;;;;;;;;;;;;;;21.04;30.49;93770.63;5124073;28;20036;-72
2021/05/06 13:00:39;;;;;;;3.63;1.17;;;;;;;20.92;31.10;93773.66;5126668;28;19912;-71
2021/05/06 13:03:10;;;;;;;6.32;1.00;;;;;;;20.82;30.55;93777.09;5123093;28;20039;-71
2021/05/06 13:05:38;;;;;;;2.55;1.10;;;;;;;20.73;30.87;93776.69;5118069;27;20500;-71
2021/05/06 13:08:04;;;;;;;4.38;0.93;;;;;;;20.62;31.07;93774.69;5123885;28;20015;-72
2021/05/06 13:10:35;;;;;;;3.78;1.30;;;;;;;20.61;30.94;93770.41;5129394;27;20544;-72
2021/05/06 13:13:02;;;;;;;4.93;1.20;;;;;;;20.67;30.44;93783.59;5129296;27;20023;-73
2021/05/06 13:15:29;;;;;;;5.10;0.90;;;;;;;20.98;29.94;93766.72;5130954;27;21978;-72
2021/05/06 13:17:56;;;;;;;2.47;1.05;;;;;;;21.41;29.55;93772.28;5130445;27;20031;-72
2021/05/06 13:20:22;;;;;;;5.22;1.15;;;;;;;21.45;28.96;93769.59;5134194;27;20037;-73
2021/05/06 13:23:20;;;;;;;2.28;1.20;;;;;;;21.68;29.86;93771.97;5133080;27;20027;-72
2021/05/06 13:25:47;;;;;;;7.85;1.30;;;;;;;22.07;27.92;93763.09;5134065;27;20025;-72
2021/05/06 13:28:18;;;;;;;3.72;0.90;;;;;;;22.29;27.41;93749.50;5132779;27;20019;-73
2021/05/06 13:30:45;;;;;;;4.70;0.88;;;;;;;22.81;25.57;93764.13;5132952;27;20061;-72
2021/05/06 13:33:20;;;;;;;6.82;1.17;;;;;;;23.34;24.83;93748.03;5134002;27;20407;-73
2021/05/06 13:36:15;;;;;;;6.07;1.02;;;;;;;24.49;23.91;93741.72;5133800;27;20015;-73
2021/05/06 13:38:51;;;;;;;4.32;1.05;;;;;;;24.95;21.86;93738.53;5134094;27;20210;-73
2021/05/06 13:41:18;;;;;;;12.65;1.13;;;;;;;25.66;22.11;93754.38;5133763;27;20027;-73
2021/05/06 13:43:43;;;;;;;2.22;1.20;;;;;;;26.23;20.89;93748.81;5132452;27;20038;-71
2021/05/06 13:46:12;;;;;;;1.42;0.80;;;;;;;26.25;19.89;93744.91;5125337;27;20490;-72
2021/05/06 13:48:38;;;;;;;5.07;1.05;;;;;;;26.22;20.19;93739.09;5117859;27;20059;-71
2021/05/06 13:51:12;;;;;;;2.80;0.95;;;;;;;26.74;19.13;93737.81;5129837;27;20023;-71
2021/05/06 13:53:39;;;;;;;8.27;1.13;;;;;;;27.05;18.98;93732.16;5133390;27;20042;-71
2021/05/06 13:56:05;;;;;;;3.25;0.80;;;;;;;27.76;18.66;93731.81;5130718;27;20100;-71
2021/05/06 13:58:31;;;;;;;4.68;1.10;;;;;;;28.02;17.38;93732.78;5129432;27;20027;-71
2021/05/06 14:00:57;;;;;;;1.98;0.80;;;;;;;28.51;17.98;93734.75;5119612;27;20079;-71
2021/05/06 14:03:23;;;;;;;1.27;0.82;;;;;;;28.69;16.21;93748.00;5120848;27;20099;-71
2021/05/06 14:05:49;;;;;;;2.88;0.95;;;;;;;28.24;16.11;93738.53;5120282;27;20040;-71
2021/05/06 14:08:15;;;;;;;3.83;1.15;;;;;;;28.72;16.39;93734.19;5124083;27;20047;-71
2021/05/06 14:10:43;;;;;;;5.90;1.13;;;;;;;29.70;15.77;93727.50;5121283;27;20031;-71
2021/05/06 14:13:09;;;;;;;2.30;1.02;;;;;;;30.86;14.57;93719.84;5119699;27;20019;-72
2021/05/06 14:15:34;;;;;;;1.67;1.00;;;;;;;30.84;13.66;93722.25;5122345;27;20035;-71
2021/05/06 14:18:00;;;;;;;4.97;0.90;;;;;;;30.47;13.96;93741.22;5123175;27;20027;-72
2021/05/06 14:20:25;;;;;;;6.28;0.80;;;;;;;30.98;13.37;93724.53;5122678;27;20093;-71
2021/05/06 14:22:52;;;;;;;2.00;0.50;;;;;;;31.16;12.77;93734.91;5132251;27;20478;-71
2021/05/06 14:25:17;;;;;;;4.85;1.35;;;;;;;31.27;13.02;93720.75;5123478;27;20027;-71
2021/05/06 14:27:43;;;;;;;3.13;0.80;;;;;;;31.93;12.36;93722.59;5133513;27;20084;-71
2021/05/06 14:30:09;;;;;;;3.22;1.05;;;;;;;32.24;12.18;93725.31;5121020;27;20041;-71
2021/05/06 14:32:35;;;;;;;2.35;0.90;;;;;;;32.83;12.05;93711.44;5127614;27;20058;-71
2021/05/06 14:35:00;;;;;;;4.28;1.20;;;;;;;33.11;11.47;93714.19;5117540;27;20055;-71
2021/05/06 14:37:25;;;;;;;2.78;0.80;;;;;;;32.62;11.17;93717.88;5118101;27;20034;-72
2021/05/06 14:39:51;;;;;;;2.83;1.10;;;;;;;32.75;11.51;93721.25;5116867;27;20026;-71
2021/05/06 14:42:17;;;;;;;3.15;1.10;;;;;;;33.06;11.28;93712.03;5116900;27;20050;-71
2021/05/06 14:44:43;;;;;;;3.17;1.08;;;;;;;33.65;11.02;93709.81;5121191;27;20035;-71
2021/05/06 14:47:09;;;;;;;3.40;1.10;;;;;;;33.65;10.70;93706.28;5123476;27;20035;-71
2021/05/06 14:49:35;;;;;;;2.60;1.10;;;;;;;32.72;10.95;93717.41;5120722;27;20134;-71
2021/05/06 14:52:00;;;;;;;6.80;1.40;;;;;;;32.43;11.23;93697.78;5121795;27;20114;-71
2021/05/06 14:54:26;;;;;;;5.13;1.25;;;;;;;33.10;10.90;93707.16;5121265;27;20027;-72
2021/05/06 14:56:51;;;;;;;2.35;0.88;;;;;;;32.77;11.37;93707.75;5131390;27;20068;-71
2021/05/06 14:59:17;;;;;;;2.33;0.88;;;;;;;32.88;11.33;93699.78;5131021;27;20041;-71